sensor_id;sensor_type;location;lat;lon;timestamp;temperature;humidity
24636;DHT22;12772;49.794;10.024;2024-03-02T00:01:20;9.30;63.10
24636;DHT22;12772;49.794;10.024;2024-03-02T00:05:23;9.50;63.30
24636;DHT22;12772;49.794;10.024;2024-03-02T00:09:25;9.40;63.20
24636;DHT22;12772;49.794;10.024;2024-03-02T00:13:27;9.40;63.30
24636;DHT22;12772;49.794;10.024;2024-03-02T00:17:29;9.40;63.40
24636;DHT22;12772;49.794;10.024;2024-03-02T00:21:31;9.30;63.40
24636;DHT22;12772;49.794;10.024;2024-03-02T00:25:44;9.80;63.80
24636;DHT22;12772;49.794;10.024;2024-03-02T00:29:47;9.40;63.50
24636;DHT22;12772;49.794;10.024;2024-03-02T00:33:50;9.70;63.80
24636;DHT22;12772;49.794;10.024;2024-03-02T00:37:52;9.80;63.90
24636;DHT22;12772;49.794;10.024;2024-03-02T00:41:54;9.40;63.70
24636;DHT22;12772;49.794;10.024;2024-03-02T00:45:56;9.80;64.00
24636;DHT22;12772;49.794;10.024;2024-03-02T00:49:58;9.70;64.10
24636;DHT22;12772;49.794;10.024;2024-03-02T00:54:03;9.70;64.20
24636;DHT22;12772;49.794;10.024;2024-03-02T00:58:06;9.70;64.30
24636;DHT22;12772;49.794;10.024;2024-03-02T01:02:08;9.30;64.20
24636;DHT22;12772;49.794;10.024;2024-03-02T01:06:10;9.50;64.50
24636;DHT22;12772;49.794;10.024;2024-03-02T01:10:12;9.20;64.40
24636;DHT22;12772;49.794;10.024;2024-03-02T01:14:14;9.80;64.70
24636;DHT22;12772;49.794;10.024;2024-03-02T01:18:16;9.20;64.30
24636;DHT22;12772;49.794;10.024;2024-03-02T01:22:19;9.60;64.60
24636;DHT22;12772;49.794;10.024;2024-03-02T01:26:25;9.30;64.30
24636;DHT22;12772;49.794;10.024;2024-03-02T01:30:27;9.60;64.50
24636;DHT22;12772;49.794;10.024;2024-03-02T01:34:29;9.20;64.20
24636;DHT22;12772;49.794;10.024;2024-03-02T01:38:31;9.30;64.40
24636;DHT22;12772;49.794;10.024;2024-03-02T01:42:36;9.60;64.80
24636;DHT22;12772;49.794;10.024;2024-03-02T01:46:38;9.60;64.70
24636;DHT22;12772;49.794;10.024;2024-03-02T01:50:40;9.10;64.50
24636;DHT22;12772;49.794;10.024;2024-03-02T01:54:42;9.20;65.00
24636;DHT22;12772;49.794;10.024;2024-03-02T01:58:45;9.50;65.30
24636;DHT22;12772;49.794;10.024;2024-03-02T02:02:47;9.30;65.10
24636;DHT22;12772;49.794;10.024;2024-03-02T02:06:50;9.00;64.90
24636;DHT22;12772;49.794;10.024;2024-03-02T02:10:52;9.40;65.30
24636;DHT22;12772;49.794;10.024;2024-03-02T02:14:54;9.40;65.40
24636;DHT22;12772;49.794;10.024;2024-03-02T02:18:56;9.40;65.40
24636;DHT22;12772;49.794;10.024;2024-03-02T02:23:04;9.20;65.30
24636;DHT22;12772;49.794;10.024;2024-03-02T02:27:09;9.40;65.60
24636;DHT22;12772;49.794;10.024;2024-03-02T02:31:11;9.40;65.60
24636;DHT22;12772;49.794;10.024;2024-03-02T02:35:13;9.60;65.90
24636;DHT22;12772;49.794;10.024;2024-03-02T02:39:17;9.40;66.30
24636;DHT22;12772;49.794;10.024;2024-03-02T02:43:20;9.30;67.00
24636;DHT22;12772;49.794;10.024;2024-03-02T02:47:22;8.90;66.70
24636;DHT22;12772;49.794;10.024;2024-03-02T02:51:24;9.00;66.80
24636;DHT22;12772;49.794;10.024;2024-03-02T02:55:27;9.30;68.00
24636;DHT22;12772;49.794;10.024;2024-03-02T02:59:29;9.30;67.80
24636;DHT22;12772;49.794;10.024;2024-03-02T03:03:31;8.90;67.60
24636;DHT22;12772;49.794;10.024;2024-03-02T03:07:33;8.90;67.70
24636;DHT22;12772;49.794;10.024;2024-03-02T03:11:37;9.30;68.00
24636;DHT22;12772;49.794;10.024;2024-03-02T03:15:39;9.00;67.50
24636;DHT22;12772;49.794;10.024;2024-03-02T03:19:41;9.30;67.60
24636;DHT22;12772;49.794;10.024;2024-03-02T03:23:43;9.10;67.20
24636;DHT22;12772;49.794;10.024;2024-03-02T03:27:45;8.90;67.30
24636;DHT22;12772;49.794;10.024;2024-03-02T03:31:47;9.30;67.70
24636;DHT22;12772;49.794;10.024;2024-03-02T03:35:49;9.30;67.70
24636;DHT22;12772;49.794;10.024;2024-03-02T03:39:50;8.80;67.40
24636;DHT22;12772;49.794;10.024;2024-03-02T03:43:53;9.10;67.50
24636;DHT22;12772;49.794;10.024;2024-03-02T03:47:55;9.30;67.40
24636;DHT22;12772;49.794;10.024;2024-03-02T03:51:57;9.30;67.30
24636;DHT22;12772;49.794;10.024;2024-03-02T03:55:59;9.30;67.00
24636;DHT22;12772;49.794;10.024;2024-03-02T04:00:01;9.00;66.80
24636;DHT22;12772;49.794;10.024;2024-03-02T04:04:04;9.20;66.90
24636;DHT22;12772;49.794;10.024;2024-03-02T04:08:06;9.20;66.90
24636;DHT22;12772;49.794;10.024;2024-03-02T04:12:11;9.20;66.90
24636;DHT22;12772;49.794;10.024;2024-03-02T04:16:13;9.10;66.80
24636;DHT22;12772;49.794;10.024;2024-03-02T04:20:15;8.80;66.70
24636;DHT22;12772;49.794;10.024;2024-03-02T04:24:17;9.00;66.80
24636;DHT22;12772;49.794;10.024;2024-03-02T04:28:19;9.10;66.90
24636;DHT22;12772;49.794;10.024;2024-03-02T04:32:21;9.00;66.80
24636;DHT22;12772;49.794;10.024;2024-03-02T04:36:23;9.00;66.80
24636;DHT22;12772;49.794;10.024;2024-03-02T04:40:25;8.80;66.60
24636;DHT22;12772;49.794;10.024;2024-03-02T04:44:27;8.50;66.40
24636;DHT22;12772;49.794;10.024;2024-03-02T04:48:29;8.50;66.40
24636;DHT22;12772;49.794;10.024;2024-03-02T04:52:31;8.80;66.60
24636;DHT22;12772;49.794;10.024;2024-03-02T04:56:33;8.80;66.60
24636;DHT22;12772;49.794;10.024;2024-03-02T05:00:45;8.80;66.30
24636;DHT22;12772;49.794;10.024;2024-03-02T05:04:48;8.80;66.10
24636;DHT22;12772;49.794;10.024;2024-03-02T05:08:50;8.80;66.20
24636;DHT22;12772;49.794;10.024;2024-03-02T05:12:52;8.70;66.00
24636;DHT22;12772;49.794;10.024;2024-03-02T05:17:00;8.50;66.10
24636;DHT22;12772;49.794;10.024;2024-03-02T05:21:03;8.70;66.20
24636;DHT22;12772;49.794;10.024;2024-03-02T05:25:06;8.70;66.20
24636;DHT22;12772;49.794;10.024;2024-03-02T05:29:10;8.70;66.10
24636;DHT22;12772;49.794;10.024;2024-03-02T05:33:13;8.60;66.00
24636;DHT22;12772;49.794;10.024;2024-03-02T05:37:15;8.60;66.20
24636;DHT22;12772;49.794;10.024;2024-03-02T05:41:16;8.20;66.20
24636;DHT22;12772;49.794;10.024;2024-03-02T05:45:18;8.70;66.60
24636;DHT22;12772;49.794;10.024;2024-03-02T05:49:21;8.00;66.10
24636;DHT22;12772;49.794;10.024;2024-03-02T05:53:22;8.60;66.50
24636;DHT22;12772;49.794;10.024;2024-03-02T05:57:24;8.40;66.30
24636;DHT22;12772;49.794;10.024;2024-03-02T06:01:46;8.10;66.10
24636;DHT22;12772;49.794;10.024;2024-03-02T06:05:48;8.10;66.20
24636;DHT22;12772;49.794;10.024;2024-03-02T06:09:51;8.20;66.80
24636;DHT22;12772;49.794;10.024;2024-03-02T06:13:53;8.20;67.10
24636;DHT22;12772;49.794;10.024;2024-03-02T06:17:55;8.00;67.40
24636;DHT22;12772;49.794;10.024;2024-03-02T06:21:57;7.80;67.40
24636;DHT22;12772;49.794;10.024;2024-03-02T06:25:59;8.10;68.00
24636;DHT22;12772;49.794;10.024;2024-03-02T06:30:01;7.80;68.40
24636;DHT22;12772;49.794;10.024;2024-03-02T06:34:04;8.30;69.50
24636;DHT22;12772;49.794;10.024;2024-03-02T06:38:06;8.10;70.20
24636;DHT22;12772;49.794;10.024;2024-03-02T06:42:08;8.00;71.00
24636;DHT22;12772;49.794;10.024;2024-03-02T06:46:10;8.20;72.40
24636;DHT22;12772;49.794;10.024;2024-03-02T06:50:15;8.20;74.00
24636;DHT22;12772;49.794;10.024;2024-03-02T06:54:17;8.30;75.80
24636;DHT22;12772;49.794;10.024;2024-03-02T06:58:19;7.80;77.30
24636;DHT22;12772;49.794;10.024;2024-03-02T07:02:21;8.40;78.90
24636;DHT22;12772;49.794;10.024;2024-03-02T07:06:23;8.00;79.60
24636;DHT22;12772;49.794;10.024;2024-03-02T07:10:26;8.20;80.10
24636;DHT22;12772;49.794;10.024;2024-03-02T07:14:28;8.00;79.90
24636;DHT22;12772;49.794;10.024;2024-03-02T07:18:57;8.80;80.30
24636;DHT22;12772;49.794;10.024;2024-03-02T07:22:59;8.20;79.70
24636;DHT22;12772;49.794;10.024;2024-03-02T07:27:01;8.30;79.90
24636;DHT22;12772;49.794;10.024;2024-03-02T07:31:04;8.80;80.30
24636;DHT22;12772;49.794;10.024;2024-03-02T07:35:07;8.60;80.40
24636;DHT22;12772;49.794;10.024;2024-03-02T07:39:09;8.80;80.70
24636;DHT22;12772;49.794;10.024;2024-03-02T07:43:11;9.00;80.80
24636;DHT22;12772;49.794;10.024;2024-03-02T07:47:13;8.70;80.20
24636;DHT22;12772;49.794;10.024;2024-03-02T07:51:15;9.00;80.10
24636;DHT22;12772;49.794;10.024;2024-03-02T07:55:17;9.00;80.00
24636;DHT22;12772;49.794;10.024;2024-03-02T07:59:19;8.80;79.70
24636;DHT22;12772;49.794;10.024;2024-03-02T08:03:22;9.00;79.50
24636;DHT22;12772;49.794;10.024;2024-03-02T08:07:24;9.60;79.80
24636;DHT22;12772;49.794;10.024;2024-03-02T08:11:27;9.10;79.40
24636;DHT22;12772;49.794;10.024;2024-03-02T08:15:29;9.30;79.50
24636;DHT22;12772;49.794;10.024;2024-03-02T08:19:31;9.60;79.50
24636;DHT22;12772;49.794;10.024;2024-03-02T08:23:34;9.30;79.40
24636;DHT22;12772;49.794;10.024;2024-03-02T08:27:37;9.30;79.30
24636;DHT22;12772;49.794;10.024;2024-03-02T08:31:39;9.40;79.50
24636;DHT22;12772;49.794;10.024;2024-03-02T08:35:41;9.40;79.10
24636;DHT22;12772;49.794;10.024;2024-03-02T08:39:45;9.70;79.20
24636;DHT22;12772;49.794;10.024;2024-03-02T08:43:47;9.60;78.80
24636;DHT22;12772;49.794;10.024;2024-03-02T08:47:49;10.20;77.60
24636;DHT22;12772;49.794;10.024;2024-03-02T08:51:51;10.30;77.00
24636;DHT22;12772;49.794;10.024;2024-03-02T08:55:55;10.30;76.50
24636;DHT22;12772;49.794;10.024;2024-03-02T08:59:57;10.00;75.80
24636;DHT22;12772;49.794;10.024;2024-03-02T09:03:59;10.30;75.30
24636;DHT22;12772;49.794;10.024;2024-03-02T09:08:01;10.50;75.50
24636;DHT22;12772;49.794;10.024;2024-03-02T09:12:05;10.30;75.30
24636;DHT22;12772;49.794;10.024;2024-03-02T09:16:07;10.70;75.10
24636;DHT22;12772;49.794;10.024;2024-03-02T09:20:11;10.80;74.50
24636;DHT22;12772;49.794;10.024;2024-03-02T09:24:14;10.50;74.30
24636;DHT22;12772;49.794;10.024;2024-03-02T09:28:16;11.00;74.30
24636;DHT22;12772;49.794;10.024;2024-03-02T09:32:19;11.10;74.10
24636;DHT22;12772;49.794;10.024;2024-03-02T09:36:22;11.20;73.60
24636;DHT22;12772;49.794;10.024;2024-03-02T09:40:27;11.30;72.50
24636;DHT22;12772;49.794;10.024;2024-03-02T09:44:30;10.90;71.60
24636;DHT22;12772;49.794;10.024;2024-03-02T09:48:32;11.40;71.60
24636;DHT22;12772;49.794;10.024;2024-03-02T09:52:36;11.50;71.20
24636;DHT22;12772;49.794;10.024;2024-03-02T09:56:39;11.30;70.70
24636;DHT22;12772;49.794;10.024;2024-03-02T10:00:41;11.70;70.60
24636;DHT22;12772;49.794;10.024;2024-03-02T10:04:43;11.80;70.10
24636;DHT22;12772;49.794;10.024;2024-03-02T10:08:45;11.90;69.00
24636;DHT22;12772;49.794;10.024;2024-03-02T10:13:03;11.60;68.30
24636;DHT22;12772;49.794;10.024;2024-03-02T10:17:08;12.00;68.20
24636;DHT22;12772;49.794;10.024;2024-03-02T10:21:13;12.10;67.40
24636;DHT22;12772;49.794;10.024;2024-03-02T10:25:32;12.10;66.50
24636;DHT22;12772;49.794;10.024;2024-03-02T10:29:36;12.20;66.10
24636;DHT22;12772;49.794;10.024;2024-03-02T10:33:39;12.40;66.50
24636;DHT22;12772;49.794;10.024;2024-03-02T10:37:41;12.50;65.90
24636;DHT22;12772;49.794;10.024;2024-03-02T10:41:44;12.80;65.10
24636;DHT22;12772;49.794;10.024;2024-03-02T10:45:49;13.00;63.60
24636;DHT22;12772;49.794;10.024;2024-03-02T10:49:51;13.30;62.50
24636;DHT22;12772;49.794;10.024;2024-03-02T10:53:54;13.50;61.00
24636;DHT22;12772;49.794;10.024;2024-03-02T10:58:00;13.80;58.50
24636;DHT22;12772;49.794;10.024;2024-03-02T11:02:04;13.90;56.90
24636;DHT22;12772;49.794;10.024;2024-03-02T11:06:08;14.00;55.40
24636;DHT22;12772;49.794;10.024;2024-03-02T11:10:11;14.10;54.10
24636;DHT22;12772;49.794;10.024;2024-03-02T11:14:16;14.10;52.80
24636;DHT22;12772;49.794;10.024;2024-03-02T11:18:19;14.20;53.30
24636;DHT22;12772;49.794;10.024;2024-03-02T11:22:21;14.20;53.40
24636;DHT22;12772;49.794;10.024;2024-03-02T11:26:23;14.50;53.60
24636;DHT22;12772;49.794;10.024;2024-03-02T11:34:38;14.90;52.00
24636;DHT22;12772;49.794;10.024;2024-03-02T11:38:45;15.10;49.50
24636;DHT22;12772;49.794;10.024;2024-03-02T11:42:49;15.20;48.40
24636;DHT22;12772;49.794;10.024;2024-03-02T11:47:01;15.50;48.90
24636;DHT22;12772;49.794;10.024;2024-03-02T11:51:03;15.70;48.50
24636;DHT22;12772;49.794;10.024;2024-03-02T11:55:06;15.90;47.40
24636;DHT22;12772;49.794;10.024;2024-03-02T11:59:10;16.10;44.00
24636;DHT22;12772;49.794;10.024;2024-03-02T12:03:13;16.20;43.30
24636;DHT22;12772;49.794;10.024;2024-03-02T12:07:20;16.40;41.50
24636;DHT22;12772;49.794;10.024;2024-03-02T12:11:23;16.60;41.90
24636;DHT22;12772;49.794;10.024;2024-03-02T12:15:26;16.70;42.10
24636;DHT22;12772;49.794;10.024;2024-03-02T12:19:29;16.90;41.20
24636;DHT22;12772;49.794;10.024;2024-03-02T12:23:32;17.10;40.80
24636;DHT22;12772;49.794;10.024;2024-03-02T12:27:34;17.20;41.00
24636;DHT22;12772;49.794;10.024;2024-03-02T12:31:36;17.40;39.70
24636;DHT22;12772;49.794;10.024;2024-03-02T12:35:38;17.50;38.40
24636;DHT22;12772;49.794;10.024;2024-03-02T12:39:45;17.70;38.70
24636;DHT22;12772;49.794;10.024;2024-03-02T12:43:48;17.80;38.80
24636;DHT22;12772;49.794;10.024;2024-03-02T12:47:50;17.90;37.80
24636;DHT22;12772;49.794;10.024;2024-03-02T12:51:53;18.00;39.00
24636;DHT22;12772;49.794;10.024;2024-03-02T12:55:56;18.20;38.40
24636;DHT22;12772;49.794;10.024;2024-03-02T12:59:59;18.30;37.90
24636;DHT22;12772;49.794;10.024;2024-03-02T13:04:01;18.50;36.50
24636;DHT22;12772;49.794;10.024;2024-03-02T13:08:05;18.50;36.60
24636;DHT22;12772;49.794;10.024;2024-03-02T13:12:07;18.50;35.60
24636;DHT22;12772;49.794;10.024;2024-03-02T13:16:12;18.60;35.70
24636;DHT22;12772;49.794;10.024;2024-03-02T13:20:14;18.60;35.20
24636;DHT22;12772;49.794;10.024;2024-03-02T13:24:19;18.60;35.10
24636;DHT22;12772;49.794;10.024;2024-03-02T13:28:22;18.50;35.30
24636;DHT22;12772;49.794;10.024;2024-03-02T13:32:25;18.60;35.20
24636;DHT22;12772;49.794;10.024;2024-03-02T13:36:27;18.50;35.80
24636;DHT22;12772;49.794;10.024;2024-03-02T13:40:29;18.50;35.30
24636;DHT22;12772;49.794;10.024;2024-03-02T13:44:36;18.60;34.80
24636;DHT22;12772;49.794;10.024;2024-03-02T13:48:39;18.50;35.00
24636;DHT22;12772;49.794;10.024;2024-03-02T13:52:42;18.40;34.60
24636;DHT22;12772;49.794;10.024;2024-03-02T13:56:44;18.40;34.60
24636;DHT22;12772;49.794;10.024;2024-03-02T14:00:47;18.40;33.70
24636;DHT22;12772;49.794;10.024;2024-03-02T14:04:49;18.40;34.00
24636;DHT22;12772;49.794;10.024;2024-03-02T14:08:51;18.40;33.90
24636;DHT22;12772;49.794;10.024;2024-03-02T14:12:53;18.40;32.80
24636;DHT22;12772;49.794;10.024;2024-03-02T14:16:56;18.40;32.30
24636;DHT22;12772;49.794;10.024;2024-03-02T14:21:01;18.40;32.00
24636;DHT22;12772;49.794;10.024;2024-03-02T14:25:05;18.40;32.30
24636;DHT22;12772;49.794;10.024;2024-03-02T14:29:07;18.40;32.60
24636;DHT22;12772;49.794;10.024;2024-03-02T14:33:09;18.50;33.00
24636;DHT22;12772;49.794;10.024;2024-03-02T14:37:13;18.50;33.00
24636;DHT22;12772;49.794;10.024;2024-03-02T14:41:15;18.40;32.30
24636;DHT22;12772;49.794;10.024;2024-03-02T14:45:17;18.40;32.80
24636;DHT22;12772;49.794;10.024;2024-03-02T14:49:19;18.20;32.60
24636;DHT22;12772;49.794;10.024;2024-03-02T14:53:21;18.00;32.90
24636;DHT22;12772;49.794;10.024;2024-03-02T14:57:23;17.90;33.80
24636;DHT22;12772;49.794;10.024;2024-03-02T15:01:25;17.80;34.20
24636;DHT22;12772;49.794;10.024;2024-03-02T15:05:27;17.70;34.80
24636;DHT22;12772;49.794;10.024;2024-03-02T15:09:29;17.70;34.60
24636;DHT22;12772;49.794;10.024;2024-03-02T15:13:31;17.70;34.70
24636;DHT22;12772;49.794;10.024;2024-03-02T15:17:34;17.60;35.10
24636;DHT22;12772;49.794;10.024;2024-03-02T15:21:36;17.50;35.50
24636;DHT22;12772;49.794;10.024;2024-03-02T15:25:38;17.50;36.10
24636;DHT22;12772;49.794;10.024;2024-03-02T15:29:40;17.40;36.40
24636;DHT22;12772;49.794;10.024;2024-03-02T15:33:42;17.30;36.00
24636;DHT22;12772;49.794;10.024;2024-03-02T15:37:44;17.20;36.70
24636;DHT22;12772;49.794;10.024;2024-03-02T15:41:46;17.10;37.30
24636;DHT22;12772;49.794;10.024;2024-03-02T15:45:48;17.00;37.30
24636;DHT22;12772;49.794;10.024;2024-03-02T15:49:51;16.90;37.70
24636;DHT22;12772;49.794;10.024;2024-03-02T15:53:52;16.80;37.70
24636;DHT22;12772;49.794;10.024;2024-03-02T15:57:55;16.80;37.60
24636;DHT22;12772;49.794;10.024;2024-03-02T16:01:57;16.70;37.50
24636;DHT22;12772;49.794;10.024;2024-03-02T16:05:59;16.60;37.60
24636;DHT22;12772;49.794;10.024;2024-03-02T16:10:01;16.60;37.50
24636;DHT22;12772;49.794;10.024;2024-03-02T16:14:05;16.60;37.80
24636;DHT22;12772;49.794;10.024;2024-03-02T16:18:07;16.50;38.00
24636;DHT22;12772;49.794;10.024;2024-03-02T16:22:09;16.40;38.00
24636;DHT22;12772;49.794;10.024;2024-03-02T16:26:12;16.40;38.40
24636;DHT22;12772;49.794;10.024;2024-03-02T16:30:14;16.30;38.70
24636;DHT22;12772;49.794;10.024;2024-03-02T16:34:16;16.20;38.90
24636;DHT22;12772;49.794;10.024;2024-03-02T16:38:18;16.10;39.00
24636;DHT22;12772;49.794;10.024;2024-03-02T16:42:20;16.10;39.40
24636;DHT22;12772;49.794;10.024;2024-03-02T16:46:22;15.90;39.60
24636;DHT22;12772;49.794;10.024;2024-03-02T16:50:24;15.80;39.60
24636;DHT22;12772;49.794;10.024;2024-03-02T16:54:26;15.80;39.60
24636;DHT22;12772;49.794;10.024;2024-03-02T16:58:27;15.70;39.50
24636;DHT22;12772;49.794;10.024;2024-03-02T17:02:29;15.60;39.40
24636;DHT22;12772;49.794;10.024;2024-03-02T17:06:31;15.50;39.70
24636;DHT22;12772;49.794;10.024;2024-03-02T17:10:33;15.40;40.10
24636;DHT22;12772;49.794;10.024;2024-03-02T17:14:35;15.20;40.30
24636;DHT22;12772;49.794;10.024;2024-03-02T17:18:37;15.00;40.80
24636;DHT22;12772;49.794;10.024;2024-03-02T17:22:39;14.80;41.10
24636;DHT22;12772;49.794;10.024;2024-03-02T17:26:42;14.60;41.30
24636;DHT22;12772;49.794;10.024;2024-03-02T17:30:44;14.50;41.60
24636;DHT22;12772;49.794;10.024;2024-03-02T17:34:46;14.40;41.80
24636;DHT22;12772;49.794;10.024;2024-03-02T17:38:47;14.30;41.80
24636;DHT22;12772;49.794;10.024;2024-03-02T17:42:49;14.20;42.20
24636;DHT22;12772;49.794;10.024;2024-03-02T17:46:51;14.00;42.50
24636;DHT22;12772;49.794;10.024;2024-03-02T17:50:53;14.00;43.00
24636;DHT22;12772;49.794;10.024;2024-03-02T17:54:55;13.90;43.40
24636;DHT22;12772;49.794;10.024;2024-03-02T17:58:57;13.80;43.80
24636;DHT22;12772;49.794;10.024;2024-03-02T18:02:59;13.70;44.30
24636;DHT22;12772;49.794;10.024;2024-03-02T18:07:01;13.60;45.00
24636;DHT22;12772;49.794;10.024;2024-03-02T18:11:03;13.50;46.50
24636;DHT22;12772;49.794;10.024;2024-03-02T18:15:08;13.40;47.60
24636;DHT22;12772;49.794;10.024;2024-03-02T18:19:10;13.30;47.50
24636;DHT22;12772;49.794;10.024;2024-03-02T18:23:12;13.10;48.30
24636;DHT22;12772;49.794;10.024;2024-03-02T18:27:14;13.10;48.90
24636;DHT22;12772;49.794;10.024;2024-03-02T18:31:16;12.90;49.50
24636;DHT22;12772;49.794;10.024;2024-03-02T18:35:22;12.80;50.20
24636;DHT22;12772;49.794;10.024;2024-03-02T18:39:24;12.60;50.80
24636;DHT22;12772;49.794;10.024;2024-03-02T18:43:26;12.60;51.40
24636;DHT22;12772;49.794;10.024;2024-03-02T18:47:28;12.50;51.70
24636;DHT22;12772;49.794;10.024;2024-03-02T18:51:30;12.40;52.00
24636;DHT22;12772;49.794;10.024;2024-03-02T18:55:32;12.30;52.40
24636;DHT22;12772;49.794;10.024;2024-03-02T18:59:34;12.30;52.90
24636;DHT22;12772;49.794;10.024;2024-03-02T19:03:36;12.30;53.60
24636;DHT22;12772;49.794;10.024;2024-03-02T19:07:38;12.30;53.00
24636;DHT22;12772;49.794;10.024;2024-03-02T19:11:40;12.30;53.20
24636;DHT22;12772;49.794;10.024;2024-03-02T19:15:42;12.30;53.30
24636;DHT22;12772;49.794;10.024;2024-03-02T19:19:44;12.20;53.40
24636;DHT22;12772;49.794;10.024;2024-03-02T19:23:46;12.20;53.70
24636;DHT22;12772;49.794;10.024;2024-03-02T19:27:48;12.20;53.80
24636;DHT22;12772;49.794;10.024;2024-03-02T19:31:50;12.10;53.60
24636;DHT22;12772;49.794;10.024;2024-03-02T19:35:52;12.20;53.70
24636;DHT22;12772;49.794;10.024;2024-03-02T19:39:54;12.10;53.60
24636;DHT22;12772;49.794;10.024;2024-03-02T19:43:56;12.10;53.70
24636;DHT22;12772;49.794;10.024;2024-03-02T19:47:58;12.00;53.60
24636;DHT22;12772;49.794;10.024;2024-03-02T19:52:00;11.90;53.80
24636;DHT22;12772;49.794;10.024;2024-03-02T19:56:02;11.90;54.10
24636;DHT22;12772;49.794;10.024;2024-03-02T20:00:04;11.80;54.30
24636;DHT22;12772;49.794;10.024;2024-03-02T20:04:07;11.40;54.30
24636;DHT22;12772;49.794;10.024;2024-03-02T20:08:10;11.20;54.70
24636;DHT22;12772;49.794;10.024;2024-03-02T20:12:12;11.10;55.00
24636;DHT22;12772;49.794;10.024;2024-03-02T20:16:14;11.20;55.30
24636;DHT22;12772;49.794;10.024;2024-03-02T20:20:18;11.40;55.50
24636;DHT22;12772;49.794;10.024;2024-03-02T20:24:20;11.70;55.50
24636;DHT22;12772;49.794;10.024;2024-03-02T20:28:22;11.70;55.30
24636;DHT22;12772;49.794;10.024;2024-03-02T20:32:24;11.60;54.90
24636;DHT22;12772;49.794;10.024;2024-03-02T20:36:26;11.40;54.30
24636;DHT22;12772;49.794;10.024;2024-03-02T20:40:28;11.80;54.60
24636;DHT22;12772;49.794;10.024;2024-03-02T20:44:30;11.60;54.10
24636;DHT22;12772;49.794;10.024;2024-03-02T20:48:32;11.50;53.80
24636;DHT22;12772;49.794;10.024;2024-03-02T20:52:34;11.80;54.00
24636;DHT22;12772;49.794;10.024;2024-03-02T20:56:36;11.80;54.00
24636;DHT22;12772;49.794;10.024;2024-03-02T21:00:42;11.80;54.00
24636;DHT22;12772;49.794;10.024;2024-03-02T21:04:44;11.70;53.80
24636;DHT22;12772;49.794;10.024;2024-03-02T21:08:46;11.40;53.40
24636;DHT22;12772;49.794;10.024;2024-03-02T21:12:48;11.10;53.20
24636;DHT22;12772;49.794;10.024;2024-03-02T21:16:50;11.50;53.90
24636;DHT22;12772;49.794;10.024;2024-03-02T21:20:52;11.40;53.90
24636;DHT22;12772;49.794;10.024;2024-03-02T21:24:54;11.30;54.80
24636;DHT22;12772;49.794;10.024;2024-03-02T21:29:01;11.30;54.40
24636;DHT22;12772;49.794;10.024;2024-03-02T21:33:05;11.30;54.50
24636;DHT22;12772;49.794;10.024;2024-03-02T21:37:07;11.20;54.40
24636;DHT22;12772;49.794;10.024;2024-03-02T21:41:09;10.80;54.20
24636;DHT22;12772;49.794;10.024;2024-03-02T21:45:11;11.10;54.60
24636;DHT22;12772;49.794;10.024;2024-03-02T21:49:13;11.10;54.60
24636;DHT22;12772;49.794;10.024;2024-03-02T21:53:16;10.80;54.40
24636;DHT22;12772;49.794;10.024;2024-03-02T21:57:17;11.00;54.80
24636;DHT22;12772;49.794;10.024;2024-03-02T22:01:21;10.70;54.60
24636;DHT22;12772;49.794;10.024;2024-03-02T22:05:23;10.80;54.80
24636;DHT22;12772;49.794;10.024;2024-03-02T22:09:25;10.60;54.80
24636;DHT22;12772;49.794;10.024;2024-03-02T22:13:27;10.90;55.20
24636;DHT22;12772;49.794;10.024;2024-03-02T22:17:29;10.50;54.80
24636;DHT22;12772;49.794;10.024;2024-03-02T22:21:31;10.90;55.60
24636;DHT22;12772;49.794;10.024;2024-03-02T22:25:33;10.80;55.40
24636;DHT22;12772;49.794;10.024;2024-03-02T22:29:35;10.40;55.30
24636;DHT22;12772;49.794;10.024;2024-03-02T22:33:37;10.80;55.80
24636;DHT22;12772;49.794;10.024;2024-03-02T22:37:39;10.80;55.80
24636;DHT22;12772;49.794;10.024;2024-03-02T22:41:41;10.80;55.80
24636;DHT22;12772;49.794;10.024;2024-03-02T22:45:43;10.30;55.40
24636;DHT22;12772;49.794;10.024;2024-03-02T22:49:45;10.80;55.90
24636;DHT22;12772;49.794;10.024;2024-03-02T22:53:47;10.50;55.50
24636;DHT22;12772;49.794;10.024;2024-03-02T22:57:49;10.40;55.30
24636;DHT22;12772;49.794;10.024;2024-03-02T23:01:51;10.70;55.60
24636;DHT22;12772;49.794;10.024;2024-03-02T23:05:53;10.60;55.60
24636;DHT22;12772;49.794;10.024;2024-03-02T23:09:55;10.60;55.50
24636;DHT22;12772;49.794;10.024;2024-03-02T23:13:57;10.60;55.30
24636;DHT22;12772;49.794;10.024;2024-03-02T23:17:59;10.50;55.20
24636;DHT22;12772;49.794;10.024;2024-03-02T23:22:01;10.20;55.00
24636;DHT22;12772;49.794;10.024;2024-03-02T23:26:05;10.10;54.80
24636;DHT22;12772;49.794;10.024;2024-03-02T23:30:08;10.00;54.60
24636;DHT22;12772;49.794;10.024;2024-03-02T23:34:10;10.30;54.90
24636;DHT22;12772;49.794;10.024;2024-03-02T23:38:13;10.30;54.70
24636;DHT22;12772;49.794;10.024;2024-03-02T23:42:15;10.30;54.50
24636;DHT22;12772;49.794;10.024;2024-03-02T23:46:17;10.00;54.00
24636;DHT22;12772;49.794;10.024;2024-03-02T23:50:19;9.80;55.10
24636;DHT22;12772;49.794;10.024;2024-03-02T23:54:21;9.90;55.40
24636;DHT22;12772;49.794;10.024;2024-03-02T23:58:23;9.80;55.20
